Bunker, Washington
Current Conditions -  °F | °C
As of 3:35 PM on Wednesday 22 Oct 2014 (Local Time) from KCLS Reporting Station
Light Rain Light Rain  
Wind Chill: 57°   Ceiling: Unl
Heat Index: 57°   Visibility: 8mi
Dew Point: 55°   Wind: 10mph
Humidity: 94%   Direction: 160°SSE
Pressure: 29.65"   Gusts: 18mph
Location:  46.6561°N, 122.993°W
Report Text: KCLS 222235Z AUTO 16009G16KT 8SM -RA FEW013 FEW047 SCT070 14/13 A2965 RMK AO2
Loading
Personal Weather Stations






























Interactive Weather Map New forecast layout! Learn more

10-Day Weather Forecast

Advertisements
Track Severe Weather on mobile